sensor_id;sensor_type;location;lat;lon;timestamp;pressure;altitude;pressure_sealevel;temperature;humidity
61113;BME280;47184;57.998;56.184;2022-09-09T00:04:37;99899.50;;;8.57;80.70
61113;BME280;47184;57.998;56.184;2022-09-09T00:10:05;99899.38;;;8.58;80.87
61113;BME280;47184;57.998;56.184;2022-09-09T00:21:12;99901.78;;;8.70;81.17
61113;BME280;47184;57.998;56.184;2022-09-09T00:23:45;99833.53;;;8.23;80.79
61113;BME280;47184;57.998;56.184;2022-09-09T00:31:55;99860.41;;;8.44;80.64
61113;BME280;47184;57.998;56.184;2022-09-09T00:34:24;99901.78;;;8.70;81.36
61113;BME280;47184;57.998;56.184;2022-09-09T00:36:53;99818.88;;;8.20;81.09
61113;BME280;47184;57.998;56.184;2022-09-09T00:42:13;99845.66;;;8.33;80.90
61113;BME280;47184;57.998;56.184;2022-09-09T00:44:51;99908.22;;;8.75;80.83
61113;BME280;47184;57.998;56.184;2022-09-09T00:47:24;99909.59;;;8.79;80.56
61113;BME280;47184;57.998;56.184;2022-09-09T00:50:00;99912.06;;;8.81;80.64
61113;BME280;47184;57.998;56.184;2022-09-09T00:52:42;99792.81;;;8.09;81.16
61113;BME280;47184;57.998;56.184;2022-09-09T00:57:59;99707.75;;;7.64;80.10
61113;BME280;47184;57.998;56.184;2022-09-09T01:00:29;99915.00;;;8.96;80.48
61113;BME280;47184;57.998;56.184;2022-09-09T01:06:15;99866.03;;;8.67;79.88
61113;BME280;47184;57.998;56.184;2022-09-09T01:08:58;99912.19;;;8.97;79.67
61113;BME280;47184;57.998;56.184;2022-09-09T01:14:51;99910.31;;;9.07;79.66
61113;BME280;47184;57.998;56.184;2022-09-09T01:17:34;99878.72;;;8.89;79.63
61113;BME280;47184;57.998;56.184;2022-09-09T01:20:25;99903.34;;;8.98;79.98
61113;BME280;47184;57.998;56.184;2022-09-09T01:23:13;99908.78;;;9.05;79.24
61113;BME280;47184;57.998;56.184;2022-09-09T01:28:36;99842.66;;;8.82;79.08
61113;BME280;47184;57.998;56.184;2022-09-09T01:31:09;99907.94;;;9.22;79.22
61113;BME280;47184;57.998;56.184;2022-09-09T01:33:43;99928.75;;;9.33;78.86
61113;BME280;47184;57.998;56.184;2022-09-09T01:36:34;99935.50;;;9.28;79.31
61113;BME280;47184;57.998;56.184;2022-09-09T01:39:06;99876.09;;;8.89;79.26
61113;BME280;47184;57.998;56.184;2022-09-09T01:41:33;99925.50;;;9.13;79.48
61113;BME280;47184;57.998;56.184;2022-09-09T01:44:03;99875.94;;;8.91;79.42
61113;BME280;47184;57.998;56.184;2022-09-09T01:46:35;99826.19;;;8.62;78.90
61113;BME280;47184;57.998;56.184;2022-09-09T01:49:10;99923.59;;;9.24;79.01
61113;BME280;47184;57.998;56.184;2022-09-09T01:51:39;99933.03;;;9.34;79.22
61113;BME280;47184;57.998;56.184;2022-09-09T01:54:11;99950.84;;;9.32;79.53
61113;BME280;47184;57.998;56.184;2022-09-09T01:57:02;99921.72;;;9.16;79.20
61113;BME280;47184;57.998;56.184;2022-09-09T02:08:18;99939.63;;;9.56;78.83
61113;BME280;47184;57.998;56.184;2022-09-09T02:13:47;99888.19;;;9.00;78.69
61113;BME280;47184;57.998;56.184;2022-09-09T02:19:23;99955.56;;;9.55;77.93
61113;BME280;47184;57.998;56.184;2022-09-09T02:22:12;99901.78;;;9.13;78.62
61113;BME280;47184;57.998;56.184;2022-09-09T02:24:39;99902.88;;;9.03;78.68
61113;BME280;47184;57.998;56.184;2022-09-09T02:27:26;99906.31;;;9.03;78.46
61113;BME280;47184;57.998;56.184;2022-09-09T02:29:53;99914.38;;;9.02;78.85
61113;BME280;47184;57.998;56.184;2022-09-09T02:32:35;99883.19;;;8.71;78.99
61113;BME280;47184;57.998;56.184;2022-09-09T02:35:08;99970.19;;;9.23;78.72
61113;BME280;47184;57.998;56.184;2022-09-09T02:37:38;99930.50;;;8.99;78.43
61113;BME280;47184;57.998;56.184;2022-09-09T02:40:07;99796.25;;;8.27;78.79
61113;BME280;47184;57.998;56.184;2022-09-09T02:42:39;99935.88;;;9.15;79.29
61113;BME280;47184;57.998;56.184;2022-09-09T02:45:07;99972.13;;;9.39;79.00
61113;BME280;47184;57.998;56.184;2022-09-09T02:50:20;99852.25;;;8.73;78.70
61113;BME280;47184;57.998;56.184;2022-09-09T02:55:43;99974.56;;;9.58;78.84
61113;BME280;47184;57.998;56.184;2022-09-09T02:58:14;99942.16;;;9.40;78.90
61113;BME280;47184;57.998;56.184;2022-09-09T03:00:50;99834.56;;;8.57;78.25
61113;BME280;47184;57.998;56.184;2022-09-09T03:03:19;99975.91;;;9.62;77.97
61113;BME280;47184;57.998;56.184;2022-09-09T03:05:48;99853.44;;;8.97;77.95
61113;BME280;47184;57.998;56.184;2022-09-09T03:08:16;99948.88;;;9.60;77.62
61113;BME280;47184;57.998;56.184;2022-09-09T03:10:43;99932.03;;;9.53;78.26
61113;BME280;47184;57.998;56.184;2022-09-09T03:13:13;99875.03;;;9.26;77.78
61113;BME280;47184;57.998;56.184;2022-09-09T03:15:41;99909.63;;;9.57;77.04
61113;BME280;47184;57.998;56.184;2022-09-09T03:18:13;99924.03;;;9.71;77.70
61113;BME280;47184;57.998;56.184;2022-09-09T03:20:39;99919.66;;;9.54;77.36
61113;BME280;47184;57.998;56.184;2022-09-09T03:23:08;99986.72;;;10.11;77.15
61113;BME280;47184;57.998;56.184;2022-09-09T03:25:35;99826.91;;;9.16;77.37
61113;BME280;47184;57.998;56.184;2022-09-09T03:28:01;99917.84;;;9.80;77.24
61113;BME280;47184;57.998;56.184;2022-09-09T03:30:28;99971.75;;;9.86;77.28
61113;BME280;47184;57.998;56.184;2022-09-09T03:32:56;99950.41;;;9.71;78.03
61113;BME280;47184;57.998;56.184;2022-09-09T03:35:27;99995.84;;;9.91;77.75
61113;BME280;47184;57.998;56.184;2022-09-09T03:37:55;99936.06;;;9.39;78.06
61113;BME280;47184;57.998;56.184;2022-09-09T03:40:22;99844.19;;;8.92;77.92
61113;BME280;47184;57.998;56.184;2022-09-09T03:42:49;99851.31;;;9.00;77.88
61113;BME280;47184;57.998;56.184;2022-09-09T03:45:16;99935.28;;;9.47;77.68
61113;BME280;47184;57.998;56.184;2022-09-09T03:47:42;99864.03;;;9.31;77.09
61113;BME280;47184;57.998;56.184;2022-09-09T03:50:13;99928.75;;;9.85;77.43
61113;BME280;47184;57.998;56.184;2022-09-09T03:52:45;100010.00;;;10.50;76.99
61113;BME280;47184;57.998;56.184;2022-09-09T03:55:32;99934.50;;;10.23;76.43
61113;BME280;47184;57.998;56.184;2022-09-09T03:57:59;99896.44;;;9.91;76.02
61113;BME280;47184;57.998;56.184;2022-09-09T04:00:32;99997.69;;;10.67;75.95
61113;BME280;47184;57.998;56.184;2022-09-09T04:03:01;99946.22;;;10.21;75.33
61113;BME280;47184;57.998;56.184;2022-09-09T04:05:27;99800.31;;;9.35;75.56
61113;BME280;47184;57.998;56.184;2022-09-09T04:07:53;99965.94;;;10.43;75.54
61113;BME280;47184;57.998;56.184;2022-09-09T04:10:20;99953.19;;;10.30;75.27
61113;BME280;47184;57.998;56.184;2022-09-09T04:12:46;100013.72;;;10.74;74.99
61113;BME280;47184;57.998;56.184;2022-09-09T04:15:13;99966.94;;;10.41;74.97
61113;BME280;47184;57.998;56.184;2022-09-09T04:17:40;99979.38;;;10.74;74.55
61113;BME280;47184;57.998;56.184;2022-09-09T04:20:06;99998.53;;;10.92;74.25
61113;BME280;47184;57.998;56.184;2022-09-09T04:22:37;99895.56;;;10.17;74.67
61113;BME280;47184;57.998;56.184;2022-09-09T04:25:07;99897.38;;;10.16;74.28
61113;BME280;47184;57.998;56.184;2022-09-09T04:27:34;99877.03;;;10.01;74.68
61113;BME280;47184;57.998;56.184;2022-09-09T04:30:00;99945.50;;;10.61;74.11
61113;BME280;47184;57.998;56.184;2022-09-09T04:32:31;99886.22;;;10.31;74.29
61113;BME280;47184;57.998;56.184;2022-09-09T04:34:58;100016.25;;;11.16;73.78
61113;BME280;47184;57.998;56.184;2022-09-09T04:37:24;99869.50;;;10.22;73.57
61113;BME280;47184;57.998;56.184;2022-09-09T04:39:52;99879.94;;;10.32;73.08
61113;BME280;47184;57.998;56.184;2022-09-09T04:42:21;99991.31;;;11.10;73.04
61113;BME280;47184;57.998;56.184;2022-09-09T04:44:48;99992.66;;;11.23;73.05
61113;BME280;47184;57.998;56.184;2022-09-09T04:47:19;100000.06;;;11.27;72.45
61113;BME280;47184;57.998;56.184;2022-09-09T04:49:46;99939.94;;;10.97;72.40
61113;BME280;47184;57.998;56.184;2022-09-09T04:52:12;99907.56;;;10.62;72.52
61113;BME280;47184;57.998;56.184;2022-09-09T04:54:46;100032.94;;;11.25;73.30
61113;BME280;47184;57.998;56.184;2022-09-09T04:57:14;100025.97;;;10.99;73.10
61113;BME280;47184;57.998;56.184;2022-09-09T04:59:40;100056.66;;;10.92;73.59
61113;BME280;47184;57.998;56.184;2022-09-09T05:02:10;100027.25;;;10.79;73.73
61113;BME280;47184;57.998;56.184;2022-09-09T05:04:40;100067.41;;;10.90;74.07
61113;BME280;47184;57.998;56.184;2022-09-09T05:07:11;99977.66;;;10.48;73.87
61113;BME280;47184;57.998;56.184;2022-09-09T05:09:39;100037.53;;;10.90;73.70
61113;BME280;47184;57.998;56.184;2022-09-09T05:12:07;100041.03;;;11.07;73.24
61113;BME280;47184;57.998;56.184;2022-09-09T05:14:35;100039.56;;;11.37;72.97
61113;BME280;47184;57.998;56.184;2022-09-09T05:17:04;99914.84;;;10.84;72.24
61113;BME280;47184;57.998;56.184;2022-09-09T05:19:31;100043.31;;;11.75;71.88
61113;BME280;47184;57.998;56.184;2022-09-09T05:21:57;100045.16;;;11.75;71.50
61113;BME280;47184;57.998;56.184;2022-09-09T05:24:31;100019.22;;;11.46;71.56
61113;BME280;47184;57.998;56.184;2022-09-09T05:26:59;100014.63;;;11.23;71.47
61113;BME280;47184;57.998;56.184;2022-09-09T05:29:28;100050.63;;;11.24;71.98
61113;BME280;47184;57.998;56.184;2022-09-09T05:31:55;99979.84;;;10.69;72.13
61113;BME280;47184;57.998;56.184;2022-09-09T05:34:23;100050.44;;;11.26;72.46
61113;BME280;47184;57.998;56.184;2022-09-09T05:36:49;100045.34;;;11.40;72.19
61113;BME280;47184;57.998;56.184;2022-09-09T05:39:16;100038.56;;;11.46;71.93
61113;BME280;47184;57.998;56.184;2022-09-09T05:41:43;99982.91;;;11.23;71.40
61113;BME280;47184;57.998;56.184;2022-09-09T05:44:10;100005.16;;;11.61;71.25
61113;BME280;47184;57.998;56.184;2022-09-09T05:46:38;100010.44;;;11.86;70.81
61113;BME280;47184;57.998;56.184;2022-09-09T05:49:05;100013.38;;;11.99;70.42
61113;BME280;47184;57.998;56.184;2022-09-09T05:51:33;100047.22;;;12.28;69.87
61113;BME280;47184;57.998;56.184;2022-09-09T05:54:04;100028.59;;;12.13;70.27
61113;BME280;47184;57.998;56.184;2022-09-09T05:56:33;100039.84;;;12.07;69.68
61113;BME280;47184;57.998;56.184;2022-09-09T05:59:01;100045.47;;;12.12;69.57
61113;BME280;47184;57.998;56.184;2022-09-09T06:01:30;100041.81;;;12.13;69.79
61113;BME280;47184;57.998;56.184;2022-09-09T06:03:57;100056.81;;;12.37;69.21
61113;BME280;47184;57.998;56.184;2022-09-09T06:06:26;100054.91;;;12.54;68.92
61113;BME280;47184;57.998;56.184;2022-09-09T06:08:57;100058.31;;;12.71;68.61
61113;BME280;47184;57.998;56.184;2022-09-09T06:11:31;100062.22;;;12.83;68.20
61113;BME280;47184;57.998;56.184;2022-09-09T06:13:59;100056.53;;;12.95;67.55
61113;BME280;47184;57.998;56.184;2022-09-09T06:16:29;100009.66;;;12.95;67.39
61113;BME280;47184;57.998;56.184;2022-09-09T06:18:57;99963.06;;;12.78;66.80
61113;BME280;47184;57.998;56.184;2022-09-09T06:21:33;100033.78;;;13.31;66.33
61113;BME280;47184;57.998;56.184;2022-09-09T06:24:01;100055.34;;;13.51;66.13
61113;BME280;47184;57.998;56.184;2022-09-09T06:26:32;100020.59;;;13.23;65.33
61113;BME280;47184;57.998;56.184;2022-09-09T06:29:01;100057.59;;;13.40;65.47
61113;BME280;47184;57.998;56.184;2022-09-09T06:31:31;100003.41;;;12.88;65.21
61113;BME280;47184;57.998;56.184;2022-09-09T06:34:07;100056.59;;;13.09;65.47
61113;BME280;47184;57.998;56.184;2022-09-09T06:36:36;100023.97;;;12.86;65.21
61113;BME280;47184;57.998;56.184;2022-09-09T06:39:03;100061.06;;;13.09;64.86
61113;BME280;47184;57.998;56.184;2022-09-09T06:41:32;100064.69;;;13.16;64.90
61113;BME280;47184;57.998;56.184;2022-09-09T06:44:00;100046.47;;;13.13;64.77
61113;BME280;47184;57.998;56.184;2022-09-09T06:46:37;100073.06;;;13.51;64.37
61113;BME280;47184;57.998;56.184;2022-09-09T06:49:04;100068.44;;;13.53;64.18
61113;BME280;47184;57.998;56.184;2022-09-09T06:51:33;100070.59;;;13.49;63.71
61113;BME280;47184;57.998;56.184;2022-09-09T06:54:03;100066.41;;;13.55;63.83
61113;BME280;47184;57.998;56.184;2022-09-09T06:56:33;100073.13;;;13.43;62.98
61113;BME280;47184;57.998;56.184;2022-09-09T06:59:05;100057.56;;;13.17;63.44
61113;BME280;47184;57.998;56.184;2022-09-09T07:01:35;100079.44;;;13.42;63.44
61113;BME280;47184;57.998;56.184;2022-09-09T07:04:05;100066.31;;;13.48;61.88
61113;BME280;47184;57.998;56.184;2022-09-09T07:06:43;100003.56;;;13.09;61.61
61113;BME280;47184;57.998;56.184;2022-09-09T07:09:14;100078.75;;;13.85;60.84
61113;BME280;47184;57.998;56.184;2022-09-09T07:11:45;100075.59;;;14.20;59.20
61113;BME280;47184;57.998;56.184;2022-09-09T07:14:13;100069.03;;;14.45;59.00
61113;BME280;47184;57.998;56.184;2022-09-09T07:16:41;100068.66;;;14.63;58.45
61113;BME280;47184;57.998;56.184;2022-09-09T07:19:09;100078.53;;;15.20;58.00
61113;BME280;47184;57.998;56.184;2022-09-09T07:21:36;100079.66;;;15.75;56.70
61113;BME280;47184;57.998;56.184;2022-09-09T07:24:02;100084.09;;;15.90;56.20
61113;BME280;47184;57.998;56.184;2022-09-09T07:26:31;100021.09;;;15.54;56.28
61113;BME280;47184;57.998;56.184;2022-09-09T07:28:59;100076.16;;;15.68;56.35
61113;BME280;47184;57.998;56.184;2022-09-09T07:31:28;100085.81;;;15.54;56.42
61113;BME280;47184;57.998;56.184;2022-09-09T07:33:57;100088.09;;;15.36;56.48
61113;BME280;47184;57.998;56.184;2022-09-09T07:36:31;100071.03;;;15.09;56.97
61113;BME280;47184;57.998;56.184;2022-09-09T07:39:10;100045.91;;;14.75;56.59
61113;BME280;47184;57.998;56.184;2022-09-09T07:41:45;100079.19;;;14.86;56.82
61113;BME280;47184;57.998;56.184;2022-09-09T07:44:18;100042.66;;;14.58;57.14
61113;BME280;47184;57.998;56.184;2022-09-09T07:46:47;100088.78;;;14.87;57.06
61113;BME280;47184;57.998;56.184;2022-09-09T07:49:21;100088.59;;;14.89;56.26
61113;BME280;47184;57.998;56.184;2022-09-09T07:51:47;100054.00;;;14.67;56.31
61113;BME280;47184;57.998;56.184;2022-09-09T07:54:19;100086.94;;;14.88;56.03
61113;BME280;47184;57.998;56.184;2022-09-09T07:56:49;100089.34;;;14.82;55.96
61113;BME280;47184;57.998;56.184;2022-09-09T07:59:16;100062.38;;;14.49;55.94
61113;BME280;47184;57.998;56.184;2022-09-09T08:01:47;100095.97;;;14.57;56.14
61113;BME280;47184;57.998;56.184;2022-09-09T08:04:18;100051.88;;;13.88;56.30
61113;BME280;47184;57.998;56.184;2022-09-09T08:06:49;100041.09;;;13.67;57.30
61113;BME280;47184;57.998;56.184;2022-09-09T08:09:18;100105.19;;;14.17;57.65
61113;BME280;47184;57.998;56.184;2022-09-09T08:11:46;100103.38;;;14.47;57.16
61113;BME280;47184;57.998;56.184;2022-09-09T08:14:13;100090.94;;;15.34;56.11
61113;BME280;47184;57.998;56.184;2022-09-09T08:16:42;100049.91;;;17.44;52.36
61113;BME280;47184;57.998;56.184;2022-09-09T08:19:18;100112.50;;;18.74;48.90
61113;BME280;47184;57.998;56.184;2022-09-09T08:21:48;100099.72;;;18.83;48.21
61113;BME280;47184;57.998;56.184;2022-09-09T08:24:15;100028.44;;;18.95;46.96
61113;BME280;47184;57.998;56.184;2022-09-09T08:26:48;100057.78;;;19.08;46.14
61113;BME280;47184;57.998;56.184;2022-09-09T08:29:17;100111.91;;;18.52;46.20
61113;BME280;47184;57.998;56.184;2022-09-09T08:31:53;100106.84;;;18.04;47.46
61113;BME280;47184;57.998;56.184;2022-09-09T08:34:24;100097.91;;;17.17;47.34
61113;BME280;47184;57.998;56.184;2022-09-09T08:36:53;100115.00;;;16.47;48.14
61113;BME280;47184;57.998;56.184;2022-09-09T08:39:29;100114.56;;;16.08;48.86
61113;BME280;47184;57.998;56.184;2022-09-09T08:44:48;100116.50;;;15.93;49.23
61113;BME280;47184;57.998;56.184;2022-09-09T08:48:13;100071.81;;;15.67;48.96
61113;BME280;47184;57.998;56.184;2022-09-09T08:50:34;100086.19;;;17.12;47.99
61113;BME280;47184;57.998;56.184;2022-09-09T08:53:14;100100.41;;;18.51;46.13
61113;BME280;47184;57.998;56.184;2022-09-09T08:55:50;100053.84;;;18.01;44.86
61113;BME280;47184;57.998;56.184;2022-09-09T08:58:34;100113.63;;;17.87;45.51
61113;BME280;47184;57.998;56.184;2022-09-09T09:11:46;100127.19;;;17.98;44.82
61113;BME280;47184;57.998;56.184;2022-09-09T09:14:19;100045.22;;;17.92;44.32
61113;BME280;47184;57.998;56.184;2022-09-09T09:16:54;100127.50;;;19.58;42.70
61113;BME280;47184;57.998;56.184;2022-09-09T09:19:23;100117.44;;;19.53;41.39
61113;BME280;47184;57.998;56.184;2022-09-09T09:22:16;100129.78;;;19.23;41.70
61113;BME280;47184;57.998;56.184;2022-09-09T09:24:56;100124.22;;;18.60;41.81
61113;BME280;47184;57.998;56.184;2022-09-09T09:30:36;100065.47;;;17.07;43.35
61113;BME280;47184;57.998;56.184;2022-09-09T09:33:22;100123.13;;;17.08;43.81
61113;BME280;47184;57.998;56.184;2022-09-09T09:35:50;100126.19;;;17.93;43.07
61113;BME280;47184;57.998;56.184;2022-09-09T09:38:20;100116.41;;;19.23;41.06
61113;BME280;47184;57.998;56.184;2022-09-09T09:40:55;100101.84;;;19.44;39.86
61113;BME280;47184;57.998;56.184;2022-09-09T09:43:30;100123.41;;;19.17;39.95
61113;BME280;47184;57.998;56.184;2022-09-09T09:45:59;100128.34;;;18.55;40.31
61113;BME280;47184;57.998;56.184;2022-09-09T09:48:27;100080.38;;;17.76;41.52
61113;BME280;47184;57.998;56.184;2022-09-09T09:50:59;100124.06;;;17.62;42.45
61113;BME280;47184;57.998;56.184;2022-09-09T09:53:33;100130.00;;;17.50;43.27
61113;BME280;47184;57.998;56.184;2022-09-09T09:56:05;100129.91;;;17.11;43.89
61113;BME280;47184;57.998;56.184;2022-09-09T09:58:53;100128.59;;;16.87;44.48
61113;BME280;47184;57.998;56.184;2022-09-09T10:01:28;100131.56;;;17.18;44.28
61113;BME280;47184;57.998;56.184;2022-09-09T10:04:12;100130.38;;;17.27;44.00
61113;BME280;47184;57.998;56.184;2022-09-09T10:06:39;100121.25;;;17.02;43.84
61113;BME280;47184;57.998;56.184;2022-09-09T10:12:01;100124.72;;;16.96;44.17
61113;BME280;47184;57.998;56.184;2022-09-09T10:22:32;100136.16;;;15.71;46.32
61113;BME280;47184;57.998;56.184;2022-09-09T10:25:28;100134.66;;;15.47;46.82
61113;BME280;47184;57.998;56.184;2022-09-09T10:28:22;100137.19;;;15.55;46.58
61113;BME280;47184;57.998;56.184;2022-09-09T10:33:45;100119.59;;;17.82;44.70
61113;BME280;47184;57.998;56.184;2022-09-09T10:36:21;100124.22;;;20.56;40.33
61113;BME280;47184;57.998;56.184;2022-09-09T10:38:53;100075.75;;;21.36;38.87
61113;BME280;47184;57.998;56.184;2022-09-09T10:55:28;100078.06;;;17.60;40.91
61113;BME280;47184;57.998;56.184;2022-09-09T10:58:00;100135.47;;;17.16;42.25
61113;BME280;47184;57.998;56.184;2022-09-09T11:00:41;100153.19;;;16.54;43.40
61113;BME280;47184;57.998;56.184;2022-09-09T11:03:21;100138.81;;;15.92;44.04
61113;BME280;47184;57.998;56.184;2022-09-09T11:06:18;100152.03;;;15.64;44.81
61113;BME280;47184;57.998;56.184;2022-09-09T11:08:45;100109.84;;;15.40;45.02
61113;BME280;47184;57.998;56.184;2022-09-09T11:14:01;100093.66;;;15.20;44.92
61113;BME280;47184;57.998;56.184;2022-09-09T11:19:35;100147.66;;;15.56;45.45
61113;BME280;47184;57.998;56.184;2022-09-09T11:24:50;100067.97;;;14.91;45.31
61113;BME280;47184;57.998;56.184;2022-09-09T11:35:43;100137.91;;;15.64;45.25
61113;BME280;47184;57.998;56.184;2022-09-09T11:40:36;100100.59;;;15.35;45.62
61113;BME280;47184;57.998;56.184;2022-09-09T11:43:09;100147.94;;;15.83;45.63
61113;BME280;47184;57.998;56.184;2022-09-09T11:45:39;100145.72;;;15.65;45.57
61113;BME280;47184;57.998;56.184;2022-09-09T11:48:32;100147.31;;;15.81;45.83
61113;BME280;47184;57.998;56.184;2022-09-09T11:51:10;100142.31;;;15.93;45.81
61113;BME280;47184;57.998;56.184;2022-09-09T11:54:02;100141.06;;;15.95;45.46
61113;BME280;47184;57.998;56.184;2022-09-09T11:56:34;100151.31;;;16.20;45.33
61113;BME280;47184;57.998;56.184;2022-09-09T11:59:25;100153.38;;;16.24;45.29
61113;BME280;47184;57.998;56.184;2022-09-09T12:06:58;100156.88;;;15.75;45.33
61113;BME280;47184;57.998;56.184;2022-09-09T12:09:42;100152.00;;;15.79;45.21
61113;BME280;47184;57.998;56.184;2022-09-09T12:15:03;100155.81;;;15.55;45.26
61113;BME280;47184;57.998;56.184;2022-09-09T12:17:58;100143.16;;;15.35;45.29
61113;BME280;47184;57.998;56.184;2022-09-09T12:20:34;100140.63;;;15.13;45.45
61113;BME280;47184;57.998;56.184;2022-09-09T12:26:01;100152.47;;;15.10;45.60
61113;BME280;47184;57.998;56.184;2022-09-09T12:33:46;100145.91;;;14.76;45.93
61113;BME280;47184;57.998;56.184;2022-09-09T12:36:28;100130.50;;;14.57;46.02
61113;BME280;47184;57.998;56.184;2022-09-09T12:38:59;100062.69;;;14.17;46.06
61113;BME280;47184;57.998;56.184;2022-09-09T12:41:36;100127.69;;;14.58;46.08
61113;BME280;47184;57.998;56.184;2022-09-09T12:44:08;100154.63;;;14.70;45.79
61113;BME280;47184;57.998;56.184;2022-09-09T12:46:41;100135.00;;;14.56;45.88
61113;BME280;47184;57.998;56.184;2022-09-09T12:54:34;100144.44;;;14.59;45.99
61113;BME280;47184;57.998;56.184;2022-09-09T12:57:02;99979.25;;;13.52;45.42
61113;BME280;47184;57.998;56.184;2022-09-09T12:59:41;100132.41;;;14.33;45.64
61113;BME280;47184;57.998;56.184;2022-09-09T13:02:26;100154.88;;;14.46;45.72
61113;BME280;47184;57.998;56.184;2022-09-09T13:04:54;100157.97;;;14.34;45.32
61113;BME280;47184;57.998;56.184;2022-09-09T13:07:21;100131.44;;;14.11;45.55
61113;BME280;47184;57.998;56.184;2022-09-09T13:09:49;100086.72;;;13.85;45.74
61113;BME280;47184;57.998;56.184;2022-09-09T13:12:18;100162.59;;;14.18;45.84
61113;BME280;47184;57.998;56.184;2022-09-09T13:14:48;100148.34;;;13.96;45.81
61113;BME280;47184;57.998;56.184;2022-09-09T13:17:20;100129.88;;;13.79;46.06
61113;BME280;47184;57.998;56.184;2022-09-09T13:19:48;100076.63;;;13.43;46.35
61113;BME280;47184;57.998;56.184;2022-09-09T13:22:38;100147.59;;;13.87;46.29
61113;BME280;47184;57.998;56.184;2022-09-09T13:25:19;100066.91;;;13.35;46.31
61113;BME280;47184;57.998;56.184;2022-09-09T13:28:04;100154.97;;;13.77;46.66
61113;BME280;47184;57.998;56.184;2022-09-09T13:30:36;100145.44;;;13.68;46.76
61113;BME280;47184;57.998;56.184;2022-09-09T13:35:36;100149.19;;;13.50;47.19
61113;BME280;47184;57.998;56.184;2022-09-09T13:38:15;100156.22;;;13.43;47.25
61113;BME280;47184;57.998;56.184;2022-09-09T13:41:07;100155.41;;;13.34;47.38
61113;BME280;47184;57.998;56.184;2022-09-09T13:43:45;100128.69;;;13.05;47.51
61113;BME280;47184;57.998;56.184;2022-09-09T13:48:55;100150.06;;;13.11;47.35
61113;BME280;47184;57.998;56.184;2022-09-09T13:51:35;100075.25;;;12.62;47.68
61113;BME280;47184;57.998;56.184;2022-09-09T13:54:04;100153.88;;;13.09;48.01
61113;BME280;47184;57.998;56.184;2022-09-09T13:56:36;100162.63;;;13.09;48.02
61113;BME280;47184;57.998;56.184;2022-09-09T13:59:05;100160.50;;;13.05;47.92
61113;BME280;47184;57.998;56.184;2022-09-09T14:01:31;100148.25;;;13.04;48.23
61113;BME280;47184;57.998;56.184;2022-09-09T14:04:00;100149.31;;;12.95;48.21
61113;BME280;47184;57.998;56.184;2022-09-09T14:06:26;100163.91;;;13.22;48.48
61113;BME280;47184;57.998;56.184;2022-09-09T14:08:53;100168.72;;;13.26;48.61
61113;BME280;47184;57.998;56.184;2022-09-09T14:11:21;100165.09;;;13.27;48.40
61113;BME280;47184;57.998;56.184;2022-09-09T14:13:48;100166.06;;;13.26;48.48
61113;BME280;47184;57.998;56.184;2022-09-09T14:16:17;100167.75;;;13.27;48.96
61113;BME280;47184;57.998;56.184;2022-09-09T14:18:44;100163.91;;;13.30;48.88
61113;BME280;47184;57.998;56.184;2022-09-09T14:21:10;100151.03;;;13.19;48.76
61113;BME280;47184;57.998;56.184;2022-09-09T14:23:37;100163.91;;;13.30;49.03
61113;BME280;47184;57.998;56.184;2022-09-09T14:26:04;100105.56;;;12.99;49.14
61113;BME280;47184;57.998;56.184;2022-09-09T14:28:30;100168.38;;;13.29;49.38
61113;BME280;47184;57.998;56.184;2022-09-09T14:31:00;100083.97;;;12.71;49.28
61113;BME280;47184;57.998;56.184;2022-09-09T14:33:27;100165.44;;;13.24;49.42
61113;BME280;47184;57.998;56.184;2022-09-09T14:35:59;100174.41;;;13.15;49.63
61113;BME280;47184;57.998;56.184;2022-09-09T14:38:29;100162.63;;;13.09;49.48
61113;BME280;47184;57.998;56.184;2022-09-09T14:40:55;100168.31;;;13.06;49.72
61113;BME280;47184;57.998;56.184;2022-09-09T14:43:22;100162.03;;;12.99;49.72
61113;BME280;47184;57.998;56.184;2022-09-09T14:45:48;100143.59;;;12.75;50.24
61113;BME280;47184;57.998;56.184;2022-09-09T14:48:14;100170.31;;;12.96;50.25
61113;BME280;47184;57.998;56.184;2022-09-09T14:50:41;100172.16;;;12.96;50.19
61113;BME280;47184;57.998;56.184;2022-09-09T14:53:08;100135.47;;;12.68;50.20
61113;BME280;47184;57.998;56.184;2022-09-09T14:55:34;100157.63;;;12.83;50.70
61113;BME280;47184;57.998;56.184;2022-09-09T14:58:00;100167.75;;;12.80;50.72
61113;BME280;47184;57.998;56.184;2022-09-09T15:00:26;100170.09;;;12.75;50.69
61113;BME280;47184;57.998;56.184;2022-09-09T15:02:53;100189.75;;;12.80;51.10
61113;BME280;47184;57.998;56.184;2022-09-09T15:05:20;100186.81;;;12.75;51.19
61113;BME280;47184;57.998;56.184;2022-09-09T15:07:46;100182.03;;;12.62;51.22
61113;BME280;47184;57.998;56.184;2022-09-09T15:10:14;100190.16;;;12.53;51.22
61113;BME280;47184;57.998;56.184;2022-09-09T15:12:44;100160.94;;;12.22;51.73
61113;BME280;47184;57.998;56.184;2022-09-09T15:15:10;100190.34;;;12.35;51.70
61113;BME280;47184;57.998;56.184;2022-09-09T15:17:36;100190.53;;;12.33;51.43
61113;BME280;47184;57.998;56.184;2022-09-09T15:20:07;100140.59;;;12.06;51.46
61113;BME280;47184;57.998;56.184;2022-09-09T15:22:33;100093.94;;;11.72;51.40
61113;BME280;47184;57.998;56.184;2022-09-09T15:25:05;100199.81;;;12.37;51.54
61113;BME280;47184;57.998;56.184;2022-09-09T15:27:33;100093.13;;;11.72;51.29
61113;BME280;47184;57.998;56.184;2022-09-09T15:29:59;100198.31;;;12.35;51.38
61113;BME280;47184;57.998;56.184;2022-09-09T15:32:27;100180.09;;;12.24;51.47
61113;BME280;47184;57.998;56.184;2022-09-09T15:34:53;100198.63;;;12.24;51.38